sensor_id;sensor_type;location;lat;lon;timestamp;pressure;altitude;pressure_sealevel;temperature;humidity
57827;BME280;43656;57.746;11.780;2023-04-29T00:01:05;101310.06;;;10.63;62.29
57827;BME280;43656;57.746;11.780;2023-04-29T00:03:30;101310.47;;;10.60;62.50
57827;BME280;43656;57.746;11.780;2023-04-29T00:05:59;101308.31;;;10.55;62.89
57827;BME280;43656;57.746;11.780;2023-04-29T00:08:25;101294.31;;;10.45;63.40
57827;BME280;43656;57.746;11.780;2023-04-29T00:10:50;101306.34;;;10.49;63.34
57827;BME280;43656;57.746;11.780;2023-04-29T00:13:16;101297.81;;;10.45;63.52
57827;BME280;43656;57.746;11.780;2023-04-29T00:15:42;101295.59;;;10.49;63.44
57827;BME280;43656;57.746;11.780;2023-04-29T00:18:08;101298.28;;;10.49;63.31
57827;BME280;43656;57.746;11.780;2023-04-29T00:20:34;101291.91;;;10.50;63.13
57827;BME280;43656;57.746;11.780;2023-04-29T00:22:59;101286.91;;;10.47;63.50
57827;BME280;43656;57.746;11.780;2023-04-29T00:25:25;101268.34;;;10.37;64.31
57827;BME280;43656;57.746;11.780;2023-04-29T00:27:51;101280.03;;;10.44;63.74
57827;BME280;43656;57.746;11.780;2023-04-29T00:30:16;101282.72;;;10.44;64.29
57827;BME280;43656;57.746;11.780;2023-04-29T00:32:42;101279.19;;;10.44;64.37
57827;BME280;43656;57.746;11.780;2023-04-29T00:35:09;101280.19;;;10.43;64.20
57827;BME280;43656;57.746;11.780;2023-04-29T00:37:35;101264.53;;;10.31;64.04
57827;BME280;43656;57.746;11.780;2023-04-29T00:40:01;101275.47;;;10.45;64.10
57827;BME280;43656;57.746;11.780;2023-04-29T00:42:27;101282.25;;;10.41;64.00
57827;BME280;43656;57.746;11.780;2023-04-29T00:44:53;101282.25;;;10.41;64.29
57827;BME280;43656;57.746;11.780;2023-04-29T00:47:19;101267.69;;;10.35;64.27
57827;BME280;43656;57.746;11.780;2023-04-29T00:49:44;101265.34;;;10.32;64.06
57827;BME280;43656;57.746;11.780;2023-04-29T00:52:10;101281.22;;;10.42;64.25
57827;BME280;43656;57.746;11.780;2023-04-29T00:54:37;101288.63;;;10.40;64.43
57827;BME280;43656;57.746;11.780;2023-04-29T00:57:03;101278.91;;;10.39;64.67
57827;BME280;43656;57.746;11.780;2023-04-29T00:59:31;101277.41;;;10.36;64.74
57827;BME280;43656;57.746;11.780;2023-04-29T01:02:03;101245.69;;;10.17;64.75
57827;BME280;43656;57.746;11.780;2023-04-29T01:04:29;101278.66;;;10.33;65.00
57827;BME280;43656;57.746;11.780;2023-04-29T01:09:56;101269.09;;;10.31;65.05
57827;BME280;43656;57.746;11.780;2023-04-29T01:15:08;101278.06;;;10.23;65.70
57827;BME280;43656;57.746;11.780;2023-04-29T01:17:47;101271.81;;;10.23;65.80
57827;BME280;43656;57.746;11.780;2023-04-29T01:20:15;101269.41;;;10.13;65.38
57827;BME280;43656;57.746;11.780;2023-04-29T01:22:40;101251.25;;;10.00;65.72
57827;BME280;43656;57.746;11.780;2023-04-29T01:25:07;101268.22;;;10.01;66.58
57827;BME280;43656;57.746;11.780;2023-04-29T01:38:43;101251.50;;;9.91;66.87
57827;BME280;43656;57.746;11.780;2023-04-29T01:43:38;101235.19;;;9.77;66.77
57827;BME280;43656;57.746;11.780;2023-04-29T01:46:05;101246.66;;;9.86;66.83
57827;BME280;43656;57.746;11.780;2023-04-29T01:48:33;101248.47;;;9.94;66.71
57827;BME280;43656;57.746;11.780;2023-04-29T01:50:58;101245.41;;;9.97;67.07
57827;BME280;43656;57.746;11.780;2023-04-29T01:53:24;101234.66;;;9.97;66.58
57827;BME280;43656;57.746;11.780;2023-04-29T01:55:49;101237.97;;;9.99;66.99
57827;BME280;43656;57.746;11.780;2023-04-29T01:58:14;101234.16;;;9.93;67.50
57827;BME280;43656;57.746;11.780;2023-04-29T02:00:40;101236.94;;;10.00;67.04
57827;BME280;43656;57.746;11.780;2023-04-29T02:03:06;101234.25;;;10.00;66.70
57827;BME280;43656;57.746;11.780;2023-04-29T02:05:32;101236.56;;;10.03;66.75
57827;BME280;43656;57.746;11.780;2023-04-29T02:07:59;101225.25;;;9.93;66.90
57827;BME280;43656;57.746;11.780;2023-04-29T02:10:25;101235.75;;;10.02;66.24
57827;BME280;43656;57.746;11.780;2023-04-29T02:12:51;101237.81;;;10.00;67.40
57827;BME280;43656;57.746;11.780;2023-04-29T02:15:17;101222.88;;;9.98;66.69
57827;BME280;43656;57.746;11.780;2023-04-29T02:17:43;101225.63;;;9.89;66.65
57827;BME280;43656;57.746;11.780;2023-04-29T02:20:09;101231.97;;;9.97;66.77
57827;BME280;43656;57.746;11.780;2023-04-29T02:22:35;101228.41;;;9.96;67.10
57827;BME280;43656;57.746;11.780;2023-04-29T02:25:00;101226.38;;;9.98;66.66
57827;BME280;43656;57.746;11.780;2023-04-29T02:27:26;101232.44;;;10.00;67.20
57827;BME280;43656;57.746;11.780;2023-04-29T02:29:52;101222.50;;;10.01;67.23
57827;BME280;43656;57.746;11.780;2023-04-29T02:32:17;101220.19;;;9.98;67.41
57827;BME280;43656;57.746;11.780;2023-04-29T02:34:45;101209.78;;;9.95;67.42
57827;BME280;43656;57.746;11.780;2023-04-29T02:37:10;101212.66;;;9.93;66.88
57827;BME280;43656;57.746;11.780;2023-04-29T02:39:36;101207.69;;;9.90;66.73
57827;BME280;43656;57.746;11.780;2023-04-29T02:42:01;101198.13;;;9.87;67.30
57827;BME280;43656;57.746;11.780;2023-04-29T02:44:27;101205.34;;;9.87;67.59
57827;BME280;43656;57.746;11.780;2023-04-29T02:46:53;101202.66;;;9.87;67.67
57827;BME280;43656;57.746;11.780;2023-04-29T02:49:18;101203.13;;;9.91;67.75
57827;BME280;43656;57.746;11.780;2023-04-29T02:51:44;101201.72;;;9.95;67.09
57827;BME280;43656;57.746;11.780;2023-04-29T02:54:10;101201.28;;;9.91;67.24
57827;BME280;43656;57.746;11.780;2023-04-29T02:56:36;101203.59;;;9.94;67.30
57827;BME280;43656;57.746;11.780;2023-04-29T02:59:01;101178.09;;;9.75;67.29
57827;BME280;43656;57.746;11.780;2023-04-29T03:01:27;101200.16;;;9.85;67.45
57827;BME280;43656;57.746;11.780;2023-04-29T03:03:53;101204.22;;;9.81;67.78
57827;BME280;43656;57.746;11.780;2023-04-29T03:06:19;101203.56;;;9.79;67.33
57827;BME280;43656;57.746;11.780;2023-04-29T03:08:44;101192.28;;;9.84;67.16
57827;BME280;43656;57.746;11.780;2023-04-29T03:11:10;101190.13;;;9.79;67.60
57827;BME280;43656;57.746;11.780;2023-04-29T03:13:36;101195.59;;;9.86;67.30
57827;BME280;43656;57.746;11.780;2023-04-29T03:16:01;101182.34;;;9.84;67.37
57827;BME280;43656;57.746;11.780;2023-04-29T03:18:27;101189.41;;;9.85;66.75
57827;BME280;43656;57.746;11.780;2023-04-29T03:20:52;101158.34;;;9.68;67.39
57827;BME280;43656;57.746;11.780;2023-04-29T03:23:18;101178.66;;;9.71;67.41
57827;BME280;43656;57.746;11.780;2023-04-29T03:25:43;101181.03;;;9.65;67.86
57827;BME280;43656;57.746;11.780;2023-04-29T03:28:09;101180.88;;;9.67;67.26
57827;BME280;43656;57.746;11.780;2023-04-29T03:30:34;101183.81;;;9.72;68.20
57827;BME280;43656;57.746;11.780;2023-04-29T03:33:00;101187.34;;;9.73;67.77
57827;BME280;43656;57.746;11.780;2023-04-29T03:35:26;101175.13;;;9.70;67.97
57827;BME280;43656;57.746;11.780;2023-04-29T03:37:51;101177.72;;;9.78;67.49
57827;BME280;43656;57.746;11.780;2023-04-29T03:40:17;101176.44;;;9.74;68.64
57827;BME280;43656;57.746;11.780;2023-04-29T03:42:43;101171.50;;;9.78;68.60
57827;BME280;43656;57.746;11.780;2023-04-29T03:45:09;101151.50;;;9.65;68.86
57827;BME280;43656;57.746;11.780;2023-04-29T03:47:37;101175.31;;;9.83;69.17
57827;BME280;43656;57.746;11.780;2023-04-29T03:50:03;101166.03;;;9.86;69.44
57827;BME280;43656;57.746;11.780;2023-04-29T03:52:28;101164.75;;;9.97;68.75
57827;BME280;43656;57.746;11.780;2023-04-29T03:54:54;101165.84;;;10.02;68.72
57827;BME280;43656;57.746;11.780;2023-04-29T03:57:19;101164.75;;;9.97;69.53
57827;BME280;43656;57.746;11.780;2023-04-29T03:59:45;101141.47;;;9.89;69.55
57827;BME280;43656;57.746;11.780;2023-04-29T04:02:14;101142.59;;;9.95;69.54
57827;BME280;43656;57.746;11.780;2023-04-29T04:04:40;101157.03;;;10.08;69.71
57827;BME280;43656;57.746;11.780;2023-04-29T04:07:06;101137.47;;;10.00;70.04
57827;BME280;43656;57.746;11.780;2023-04-29T04:09:32;101145.81;;;10.05;69.89
57827;BME280;43656;57.746;11.780;2023-04-29T04:11:57;101084.50;;;9.64;70.06
57827;BME280;43656;57.746;11.780;2023-04-29T04:14:23;101156.38;;;10.06;70.55
57827;BME280;43656;57.746;11.780;2023-04-29T04:16:49;101149.78;;;10.09;70.29
57827;BME280;43656;57.746;11.780;2023-04-29T04:19:15;101143.22;;;10.11;70.75
57827;BME280;43656;57.746;11.780;2023-04-29T04:21:41;101149.06;;;10.15;71.34
57827;BME280;43656;57.746;11.780;2023-04-29T04:24:06;101149.34;;;10.20;71.26
57827;BME280;43656;57.746;11.780;2023-04-29T04:26:32;101140.25;;;10.21;70.69
57827;BME280;43656;57.746;11.780;2023-04-29T04:28:57;101145.34;;;10.16;71.79
57827;BME280;43656;57.746;11.780;2023-04-29T04:31:23;101139.94;;;10.16;71.85
57827;BME280;43656;57.746;11.780;2023-04-29T04:33:49;101134.84;;;10.21;71.78
57827;BME280;43656;57.746;11.780;2023-04-29T04:36:15;101134.00;;;10.35;71.35
57827;BME280;43656;57.746;11.780;2023-04-29T04:38:40;101140.19;;;10.51;71.23
57827;BME280;43656;57.746;11.780;2023-04-29T04:41:06;101141.53;;;10.62;71.00
57827;BME280;43656;57.746;11.780;2023-04-29T04:43:34;101137.34;;;10.74;70.39
57827;BME280;43656;57.746;11.780;2023-04-29T04:46:09;101142.84;;;10.87;70.75
57827;BME280;43656;57.746;11.780;2023-04-29T04:48:34;101142.38;;;11.05;69.58
57827;BME280;43656;57.746;11.780;2023-04-29T04:51:09;101135.00;;;11.14;69.93
57827;BME280;43656;57.746;11.780;2023-04-29T04:53:35;101123.41;;;11.13;69.42
57827;BME280;43656;57.746;11.780;2023-04-29T04:56:01;101134.94;;;11.35;69.08
57827;BME280;43656;57.746;11.780;2023-04-29T04:58:27;101123.34;;;11.63;68.51
57827;BME280;43656;57.746;11.780;2023-04-29T05:00:52;101126.22;;;11.61;68.63
57827;BME280;43656;57.746;11.780;2023-04-29T05:03:18;101100.25;;;11.53;68.66
57827;BME280;43656;57.746;11.780;2023-04-29T05:05:43;101121.81;;;11.88;68.08
57827;BME280;43656;57.746;11.780;2023-04-29T05:08:09;101120.16;;;11.87;68.23
57827;BME280;43656;57.746;11.780;2023-04-29T05:10:35;101122.91;;;11.94;68.32
57827;BME280;43656;57.746;11.780;2023-04-29T05:13:01;101119.78;;;11.97;68.47
57827;BME280;43656;57.746;11.780;2023-04-29T05:15:26;101123.34;;;12.04;68.18
57827;BME280;43656;57.746;11.780;2023-04-29T05:17:52;101103.63;;;11.97;68.28
57827;BME280;43656;57.746;11.780;2023-04-29T05:20:17;101112.00;;;12.15;68.01
57827;BME280;43656;57.746;11.780;2023-04-29T05:22:44;101087.50;;;12.17;67.23
57827;BME280;43656;57.746;11.780;2023-04-29T05:25:10;101104.34;;;12.26;67.71
57827;BME280;43656;57.746;11.780;2023-04-29T05:27:35;101102.72;;;12.38;67.69
57827;BME280;43656;57.746;11.780;2023-04-29T05:30:00;101099.44;;;12.56;67.25
57827;BME280;43656;57.746;11.780;2023-04-29T05:32:26;101105.06;;;12.67;67.20
57827;BME280;43656;57.746;11.780;2023-04-29T05:34:51;101090.97;;;12.72;66.87
57827;BME280;43656;57.746;11.780;2023-04-29T05:37:17;101094.91;;;12.89;66.53
57827;BME280;43656;57.746;11.780;2023-04-29T05:39:42;101093.66;;;12.92;66.16
57827;BME280;43656;57.746;11.780;2023-04-29T05:42:08;101094.28;;;12.94;65.68
57827;BME280;43656;57.746;11.780;2023-04-29T05:44:33;101091.97;;;12.84;65.73
57827;BME280;43656;57.746;11.780;2023-04-29T05:46:59;101093.25;;;12.95;64.74
57827;BME280;43656;57.746;11.780;2023-04-29T05:49:25;101090.56;;;13.15;64.06
57827;BME280;43656;57.746;11.780;2023-04-29T05:51:50;101082.66;;;13.27;63.63
57827;BME280;43656;57.746;11.780;2023-04-29T05:54:16;101085.94;;;13.49;63.19
57827;BME280;43656;57.746;11.780;2023-04-29T05:56:41;101087.25;;;13.98;61.97
57827;BME280;43656;57.746;11.780;2023-04-29T05:59:07;101081.56;;;14.13;61.70
57827;BME280;43656;57.746;11.780;2023-04-29T06:01:32;101078.84;;;14.13;61.78
57827;BME280;43656;57.746;11.780;2023-04-29T06:03:58;101076.84;;;14.01;61.67
57827;BME280;43656;57.746;11.780;2023-04-29T06:06:23;101075.84;;;13.89;61.84
57827;BME280;43656;57.746;11.780;2023-04-29T06:08:49;101067.97;;;13.81;61.18
57827;BME280;43656;57.746;11.780;2023-04-29T06:11:15;101079.19;;;13.84;61.07
57827;BME280;43656;57.746;11.780;2023-04-29T06:13:40;101070.84;;;13.86;60.82
57827;BME280;43656;57.746;11.780;2023-04-29T06:16:06;101063.56;;;13.86;60.88
57827;BME280;43656;57.746;11.780;2023-04-29T06:18:32;101076.50;;;13.84;61.19
57827;BME280;43656;57.746;11.780;2023-04-29T06:20:57;101064.22;;;13.82;61.21
57827;BME280;43656;57.746;11.780;2023-04-29T06:23:22;101064.00;;;13.77;61.74
57827;BME280;43656;57.746;11.780;2023-04-29T06:25:48;101066.69;;;13.83;61.60
57827;BME280;43656;57.746;11.780;2023-04-29T06:28:13;101071.31;;;13.70;61.85
57827;BME280;43656;57.746;11.780;2023-04-29T06:30:39;101078.66;;;13.56;62.86
57827;BME280;43656;57.746;11.780;2023-04-29T06:33:05;101079.31;;;13.38;63.69
57827;BME280;43656;57.746;11.780;2023-04-29T06:35:32;101050.22;;;13.13;64.07
57827;BME280;43656;57.746;11.780;2023-04-29T06:37:57;101078.47;;;13.31;64.49
57827;BME280;43656;57.746;11.780;2023-04-29T06:40:23;101061.03;;;13.27;64.79
57827;BME280;43656;57.746;11.780;2023-04-29T06:42:48;101070.81;;;13.34;65.06
57827;BME280;43656;57.746;11.780;2023-04-29T06:45:14;101053.72;;;13.21;65.56
57827;BME280;43656;57.746;11.780;2023-04-29T06:47:40;101065.16;;;13.43;65.56
57827;BME280;43656;57.746;11.780;2023-04-29T06:50:05;101068.50;;;13.45;65.48
57827;BME280;43656;57.746;11.780;2023-04-29T06:52:31;101064.75;;;13.46;65.98
57827;BME280;43656;57.746;11.780;2023-04-29T06:54:57;101061.41;;;13.50;66.32
57827;BME280;43656;57.746;11.780;2023-04-29T06:57:22;101056.22;;;13.49;66.50
57827;BME280;43656;57.746;11.780;2023-04-29T06:59:48;101063.25;;;13.56;66.50
57827;BME280;43656;57.746;11.780;2023-04-29T07:02:13;101060.38;;;13.45;67.13
57827;BME280;43656;57.746;11.780;2023-04-29T07:04:40;101054.13;;;13.44;67.49
57827;BME280;43656;57.746;11.780;2023-04-29T07:07:05;101043.97;;;13.33;67.84
57827;BME280;43656;57.746;11.780;2023-04-29T07:09:31;101048.31;;;13.40;67.61
57827;BME280;43656;57.746;11.780;2023-04-29T07:11:56;101040.63;;;13.17;67.71
57827;BME280;43656;57.746;11.780;2023-04-29T07:14:21;101055.84;;;13.19;67.67
57827;BME280;43656;57.746;11.780;2023-04-29T07:16:52;101047.53;;;13.27;67.34
57827;BME280;43656;57.746;11.780;2023-04-29T07:19:18;101055.84;;;13.19;66.79
57827;BME280;43656;57.746;11.780;2023-04-29T07:21:43;101050.44;;;13.19;66.11
57827;BME280;43656;57.746;11.780;2023-04-29T07:24:09;101024.44;;;13.11;65.41
57827;BME280;43656;57.746;11.780;2023-04-29T07:26:34;101047.50;;;13.13;65.41
57827;BME280;43656;57.746;11.780;2023-04-29T07:29:00;101046.06;;;13.11;65.36
57827;BME280;43656;57.746;11.780;2023-04-29T07:31:25;101043.97;;;13.20;65.26
57827;BME280;43656;57.746;11.780;2023-04-29T07:33:51;101048.13;;;13.35;64.82
57827;BME280;43656;57.746;11.780;2023-04-29T07:36:17;101048.31;;;13.21;65.27
57827;BME280;43656;57.746;11.780;2023-04-29T07:38:42;101050.63;;;13.10;65.05
57827;BME280;43656;57.746;11.780;2023-04-29T07:41:08;101043.59;;;12.96;65.56
57827;BME280;43656;57.746;11.780;2023-04-29T07:43:33;101030.72;;;12.98;65.71
57827;BME280;43656;57.746;11.780;2023-04-29T07:45:58;101037.78;;;12.99;65.72
57827;BME280;43656;57.746;11.780;2023-04-29T07:48:24;101025.31;;;12.91;65.88
57827;BME280;43656;57.746;11.780;2023-04-29T07:50:49;101036.53;;;12.95;65.67
57827;BME280;43656;57.746;11.780;2023-04-29T07:53:15;101040.47;;;12.79;66.35
57827;BME280;43656;57.746;11.780;2023-04-29T07:55:41;101041.53;;;12.85;66.45
57827;BME280;43656;57.746;11.780;2023-04-29T07:58:06;101046.72;;;12.80;66.33
57827;BME280;43656;57.746;11.780;2023-04-29T08:00:32;101045.06;;;12.79;66.10
57827;BME280;43656;57.746;11.780;2023-04-29T08:02:58;101039.84;;;12.77;65.82
57827;BME280;43656;57.746;11.780;2023-04-29T08:05:24;101035.28;;;12.84;65.08
57827;BME280;43656;57.746;11.780;2023-04-29T08:07:50;101039.00;;;12.50;64.72
57827;BME280;43656;57.746;11.780;2023-04-29T08:10:16;101043.38;;;12.58;64.61
57827;BME280;43656;57.746;11.780;2023-04-29T08:12:45;101039.03;;;12.63;63.00
57827;BME280;43656;57.746;11.780;2023-04-29T08:15:11;101035.91;;;12.66;61.81
57827;BME280;43656;57.746;11.780;2023-04-29T08:17:36;101017.81;;;12.47;61.33
57827;BME280;43656;57.746;11.780;2023-04-29T08:20:02;101032.13;;;12.28;61.50
57827;BME280;43656;57.746;11.780;2023-04-29T08:22:28;101025.91;;;12.34;61.44
57827;BME280;43656;57.746;11.780;2023-04-29T08:24:53;101022.41;;;12.46;61.41
57827;BME280;43656;57.746;11.780;2023-04-29T08:27:19;101034.00;;;12.40;61.42
57827;BME280;43656;57.746;11.780;2023-04-29T08:29:46;101019.84;;;12.12;61.26
57827;BME280;43656;57.746;11.780;2023-04-29T08:32:11;101016.72;;;12.15;61.12
57827;BME280;43656;57.746;11.780;2023-04-29T08:34:37;101039.44;;;12.54;60.71
57827;BME280;43656;57.746;11.780;2023-04-29T08:37:02;101021.56;;;12.33;61.19
57827;BME280;43656;57.746;11.780;2023-04-29T08:39:28;101035.91;;;12.46;61.54
57827;BME280;43656;57.746;11.780;2023-04-29T08:41:58;101036.09;;;12.38;61.70
57827;BME280;43656;57.746;11.780;2023-04-29T08:44:25;101029.44;;;12.34;61.99
57827;BME280;43656;57.746;11.780;2023-04-29T08:46:51;101033.19;;;12.46;61.70
57827;BME280;43656;57.746;11.780;2023-04-29T08:49:17;101027.59;;;12.61;61.25
57827;BME280;43656;57.746;11.780;2023-04-29T08:51:43;101033.00;;;12.75;60.82
57827;BME280;43656;57.746;11.780;2023-04-29T08:54:10;101031.75;;;12.84;60.72
57827;BME280;43656;57.746;11.780;2023-04-29T08:56:36;101005.56;;;12.78;60.60
57827;BME280;43656;57.746;11.780;2023-04-29T08:59:01;101003.50;;;12.86;60.51
57827;BME280;43656;57.746;11.780;2023-04-29T09:01:29;101025.31;;;13.25;59.90
57827;BME280;43656;57.746;11.780;2023-04-29T09:04:08;101030.72;;;12.91;60.00
57827;BME280;43656;57.746;11.780;2023-04-29T09:06:36;101016.59;;;12.76;61.05
57827;BME280;43656;57.746;11.780;2023-04-29T09:09:02;100997.88;;;12.48;61.76
57827;BME280;43656;57.746;11.780;2023-04-29T09:11:29;101023.22;;;12.67;62.30
57827;BME280;43656;57.746;11.780;2023-04-29T09:13:59;101019.94;;;12.72;63.27
57827;BME280;43656;57.746;11.780;2023-04-29T09:16:26;101000.19;;;12.64;63.33
57827;BME280;43656;57.746;11.780;2023-04-29T09:18:52;101000.81;;;12.46;63.31
57827;BME280;43656;57.746;11.780;2023-04-29T09:21:24;101023.47;;;12.72;62.70
57827;BME280;43656;57.746;11.780;2023-04-29T09:23:54;101023.03;;;12.95;62.13
57827;BME280;43656;57.746;11.780;2023-04-29T09:26:20;101022.19;;;13.08;62.01
57827;BME280;43656;57.746;11.780;2023-04-29T09:28:49;101019.03;;;13.04;61.93
57827;BME280;43656;57.746;11.780;2023-04-29T09:31:29;100992.28;;;12.96;62.28
57827;BME280;43656;57.746;11.780;2023-04-29T09:33:56;101006.56;;;13.30;61.63
57827;BME280;43656;57.746;11.780;2023-04-29T09:39:10;101013.88;;;13.81;60.55
57827;BME280;43656;57.746;11.780;2023-04-29T09:44:08;101001.63;;;14.10;60.49
57827;BME280;43656;57.746;11.780;2023-04-29T09:46:35;100996.81;;;14.50;59.33
57827;BME280;43656;57.746;11.780;2023-04-29T09:49:02;101003.72;;;14.40;59.46
57827;BME280;43656;57.746;11.780;2023-04-29T09:51:29;101000.44;;;14.63;58.74
57827;BME280;43656;57.746;11.780;2023-04-29T09:53:58;100995.19;;;14.93;57.91
57827;BME280;43656;57.746;11.780;2023-04-29T09:56:23;100997.81;;;14.99;58.60
57827;BME280;43656;57.746;11.780;2023-04-29T09:58:53;100992.88;;;14.71;58.36
57827;BME280;43656;57.746;11.780;2023-04-29T10:01:21;101001.50;;;14.30;59.34
57827;BME280;43656;57.746;11.780;2023-04-29T10:03:46;101005.06;;;14.30;59.97
57827;BME280;43656;57.746;11.780;2023-04-29T10:06:13;101005.88;;;14.63;59.20
57827;BME280;43656;57.746;11.780;2023-04-29T10:08:41;101000.56;;;14.74;59.44
57827;BME280;43656;57.746;11.780;2023-04-29T10:11:09;100996.81;;;14.75;59.03
57827;BME280;43656;57.746;11.780;2023-04-29T10:13:35;100998.94;;;14.67;58.77
57827;BME280;43656;57.746;11.780;2023-04-29T10:16:25;100998.66;;;14.50;59.70
57827;BME280;43656;57.746;11.780;2023-04-29T10:18:53;100988.69;;;14.19;60.56
57827;BME280;43656;57.746;11.780;2023-04-29T10:21:26;100997.34;;;13.96;61.59
57827;BME280;43656;57.746;11.780;2023-04-29T10:23:53;100974.50;;;13.92;61.20
57827;BME280;43656;57.746;11.780;2023-04-29T10:26:19;100968.38;;;14.34;59.94
57827;BME280;43656;57.746;11.780;2023-04-29T10:28:46;100986.75;;;13.94;60.10
57827;BME280;43656;57.746;11.780;2023-04-29T10:31:13;100998.84;;;14.55;59.45
57827;BME280;43656;57.746;11.780;2023-04-29T10:33:42;100992.28;;;14.69;59.32
57827;BME280;43656;57.746;11.780;2023-04-29T10:36:10;100988.75;;;14.69;60.04
57827;BME280;43656;57.746;11.780;2023-04-29T10:38:43;100953.63;;;14.30;61.15
57827;BME280;43656;57.746;11.780;2023-04-29T10:41:19;100985.66;;;14.65;59.88
57827;BME280;43656;57.746;11.780;2023-04-29T10:43:47;100981.72;;;14.61;60.34
57827;BME280;43656;57.746;11.780;2023-04-29T10:46:16;100982.13;;;14.33;59.55
57827;BME280;43656;57.746;11.780;2023-04-29T10:48:46;100990.91;;;13.90;57.48
57827;BME280;43656;57.746;11.780;2023-04-29T10:51:12;100997.38;;;13.89;55.64
57827;BME280;43656;57.746;11.780;2023-04-29T10:54:17;100983.06;;;13.82;53.76
57827;BME280;43656;57.746;11.780;2023-04-29T10:56:52;100983.09;;;13.75;54.24
57827;BME280;43656;57.746;11.780;2023-04-29T11:02:03;100976.25;;;13.73;54.68
57827;BME280;43656;57.746;11.780;2023-04-29T11:04:30;100994.22;;;13.99;53.52
57827;BME280;43656;57.746;11.780;2023-04-29T11:06:56;100988.56;;;13.62;54.80
57827;BME280;43656;57.746;11.780;2023-04-29T11:09:24;100981.47;;;13.74;55.12
57827;BME280;43656;57.746;11.780;2023-04-29T11:11:56;100974.19;;;14.06;55.58
57827;BME280;43656;57.746;11.780;2023-04-29T11:14:28;100974.69;;;13.90;56.58
57827;BME280;43656;57.746;11.780;2023-04-29T11:17:02;100985.00;;;13.75;56.79
57827;BME280;43656;57.746;11.780;2023-04-29T11:19:36;100986.38;;;13.39;57.96
57827;BME280;43656;57.746;11.780;2023-04-29T11:22:13;100996.81;;;13.09;58.46
57827;BME280;43656;57.746;11.780;2023-04-29T11:24:58;100952.44;;;12.72;60.28
57827;BME280;43656;57.746;11.780;2023-04-29T11:27:35;100984.19;;;12.83;61.12
57827;BME280;43656;57.746;11.780;2023-04-29T11:30:02;100974.84;;;12.92;59.41
57827;BME280;43656;57.746;11.780;2023-04-29T11:32:31;100993.75;;;12.92;59.22
57827;BME280;43656;57.746;11.780;2023-04-29T11:35:13;101006.22;;;12.73;60.49
57827;BME280;43656;57.746;11.780;2023-04-29T11:37:40;101008.50;;;12.56;60.48
57827;BME280;43656;57.746;11.780;2023-04-29T11:40:06;100991.25;;;12.70;59.73
57827;BME280;43656;57.746;11.780;2023-04-29T11:42:36;100998.72;;;12.95;58.14
57827;BME280;43656;57.746;11.780;2023-04-29T11:45:05;100999.16;;;12.79;56.85
57827;BME280;43656;57.746;11.780;2023-04-29T11:47:31;101007.44;;;12.84;56.32
57827;BME280;43656;57.746;11.780;2023-04-29T11:50:06;101016.38;;;12.91;56.72
57827;BME280;43656;57.746;11.780;2023-04-29T11:52:35;100991.66;;;12.81;55.71
57827;BME280;43656;57.746;11.780;2023-04-29T11:55:03;100998.03;;;13.20;54.86
57827;BME280;43656;57.746;11.780;2023-04-29T11:57:30;101003.44;;;13.20;54.53
57827;BME280;43656;57.746;11.780;2023-04-29T11:59:58;101009.69;;;13.07;54.79
57827;BME280;43656;57.746;11.780;2023-04-29T12:02:32;101001.47;;;13.60;54.27
57827;BME280;43656;57.746;11.780;2023-04-29T12:05:07;100997.47;;;12.91;54.64
57827;BME280;43656;57.746;11.780;2023-04-29T12:07:34;101015.53;;;12.97;54.39
57827;BME280;43656;57.746;11.780;2023-04-29T12:10:00;101022.41;;;12.93;54.23
57827;BME280;43656;57.746;11.780;2023-04-29T12:12:26;101016.78;;;12.88;54.64
57827;BME280;43656;57.746;11.780;2023-04-29T12:14:52;101010.78;;;12.86;55.00
57827;BME280;43656;57.746;11.780;2023-04-29T12:17:18;101025.94;;;12.93;55.97
57827;BME280;43656;57.746;11.780;2023-04-29T12:19:45;101030.50;;;12.93;54.77
57827;BME280;43656;57.746;11.780;2023-04-29T12:22:10;100993.53;;;12.74;55.00
57827;BME280;43656;57.746;11.780;2023-04-29T12:24:37;101021.16;;;13.02;55.82
57827;BME280;43656;57.746;11.780;2023-04-29T12:27:06;101017.22;;;12.85;56.37
57827;BME280;43656;57.746;11.780;2023-04-29T12:29:32;101035.28;;;12.91;56.60
57827;BME280;43656;57.746;11.780;2023-04-29T12:31:58;101041.50;;;13.05;55.74
57827;BME280;43656;57.746;11.780;2023-04-29T12:34:26;101027.38;;;13.03;55.82
57827;BME280;43656;57.746;11.780;2023-04-29T12:37:02;101024.88;;;13.01;55.94
57827;BME280;43656;57.746;11.780;2023-04-29T12:39:28;101034.03;;;12.74;55.73
57827;BME280;43656;57.746;11.780;2023-04-29T12:41:57;101007.84;;;13.01;54.04
57827;BME280;43656;57.746;11.780;2023-04-29T12:44:23;101021.56;;;12.92;54.45
57827;BME280;43656;57.746;11.780;2023-04-29T12:46:49;100998.53;;;12.77;54.60
57827;BME280;43656;57.746;11.780;2023-04-29T12:49:17;101031.94;;;13.15;54.75
57827;BME280;43656;57.746;11.780;2023-04-29T12:51:43;101025.06;;;13.13;54.69
57827;BME280;43656;57.746;11.780;2023-04-29T12:54:09;101022.81;;;12.97;54.64
57827;BME280;43656;57.746;11.780;2023-04-29T12:56:34;101039.03;;;12.90;54.41
57827;BME280;43656;57.746;11.780;2023-04-29T12:59:07;101026.72;;;13.14;53.66
57827;BME280;43656;57.746;11.780;2023-04-29T13:01:32;101023.59;;;13.17;53.83
57827;BME280;43656;57.746;11.780;2023-04-29T13:03:58;101035.06;;;12.92;54.10
57827;BME280;43656;57.746;11.780;2023-04-29T13:06:24;100996.66;;;12.70;55.13